WFO Denver/Boulder


Hot-Air Balloon Forecast for Colorado
National Weather Service Denver/Boulder, Colorado
1905 MDT Monday, September 22, 2014

COLORADO SYNOPSIS VALID 23/0000Z-23/1200Z UPPER LEVEL TROF WILL 
MOVE EAST ACROSS THE NORTHERN HIGH PLAINS THROUGH 12Z. MODERATE 
WESTERLY FLOW ALOFT. AIRMASS SOMEWHAT UNSTABLE TIL 03Z WITH 
SCATTERED SHOWERS AND THUNDERSTORMS MAINLY OVER EASTERN AND NORTHERN 
COLORADO. THEN AIRMASS STABILIZING WITH SHOWERS AND STORMS ENDING BY 
AROUND 06Z.

* * * * * Northeast Colorado * * * * *

METAR KFNL 230055Z AUTO 25011KT 10SM FEW100 22/07 A3010 RMK AO1
METAR KFNL 230035Z AUTO 25009G14KT 10SM FEW065 22/07 A3010 RMK AO1
METAR KFNL 230015Z AUTO 30009G19KT 10SM FEW065 SCT080 22/09 A3010 RMK
       AO1

METAR KGXY 230055Z AUTO 32007KT 10SM FEW120 21/09 A3008 RMK AO1
METAR KGXY 230035Z AUTO 00000KT 10SM CLR 22/09 A3007 RMK AO1
METAR KGXY 230015Z AUTO 00000KT 10SM CLR 23/09 A3007 RMK AO1

METAR KLMO 230054Z AUTO 30014G18KT 4SM HZ SCT100 BKN120 23/04 A3011 RMK
       AO2 T02290039
METAR KLMO 230034Z AUTO 28010G15KT 7SM BKN110 23/05 A3012 RMK AO2
       T02280053
METAR KLMO 230014Z AUTO 33008KT 10SM SCT110 23/06 A3011 RMK AO2
       T02300063

METAR KBDU 230056Z AUTO 24006KT 10SM CLR 22/05 A3010 RMK AO2
METAR KBDU 230036Z AUTO 30008G14KT 10SM SCT110 23/04 A3011 RMK AO2 LTG
       DSNT SE AND NW
METAR KBDU 230016Z AUTO 23013G17KT 10SM SCT110 25/03 A3010 RMK AO2


KBJC 222336Z 2300/2324 33010KT P6SM SCT080 BKN120
     FM230300 30010KT P6SM SCT080 BKN120
     FM230600 27009KT P6SM FEW120 SCT200
     FM231800 31010KT P6SM FEW090 SCT140
METAR KBJC 230046Z 24004KT 30SM SCT060 SCT120CB BKN200 22/08 A3014 RMK
       CB E LTGCG DSNT E
METAR KBJC 222346Z 20009KT 40SM SCT060 BKN120CB BKN200 24/07 A3012 RMK
       CB E-S
METAR KBJC 222253Z 00000KT 50SM SCT055 SCT120CB BKN200 25/05 A3011 RMK
       CB E-S-SW

KDEN 230048Z 2301/2406 VRB05G15KT P6SM VCTS SCT080CB BKN120
     FM230115 30010KT P6SM SCT080 BKN120
     FM230400 22010KT P6SM FEW120 SCT200
     FM231200 23008KT P6SM FEW120 SCT200
     FM231900 30010KT P6SM FEW090 SCT140
     FM240100 VRB05KT P6SM FEW090 SCT140
     FM240300 21010KT P6SM FEW140
METAR KDEN 230053Z 21003KT 10SM TS BKN090CB BKN110 BKN200 22/07 A3010
       RMK AO2 SLP125 TSB21 OCNL LTGICCG VC SE TS VC SE MOV E SHRA
       DSNT SE T02220072
SPECI KDEN 230040Z 17008KT 10SM TS BKN080CB BKN110 BKN200 21/09 A3010
       RMK AO2 TSB21 OCNL LTGICCG SE-S TS VC SE-S MOV E VCSH SE-S
       T02060094
SPECI KDEN 230022Z 00000KT 10SM TS BKN080CB BKN110 BKN200 23/07 A3010
       RMK AO2 TSB21 OCNL LTGICCG VC SW TS VC SW MOV E VCSH S-SW
       T02330067


KBKF 2221/2323 VRB14KT 9999 VCTS BKN080CB QNH3010INS
     TEMPO 2221/2302 VRB15G25KT -TSRA BKN070CB
     BECMG 2301/2302 21009KT 9999 NSW SCT080 QNH3013INS
     BECMG 2309/2310 VRB06KT 9999 FEW100 QNH3020INS
     BECMG 2316/2317 27009KT 9999 SKC QNH3016INS TX25/2223Z
     TN13/2311Z AMD 222124
SPECI KBKF 230049Z 10006KT 10SM VCTS FEW030 SCT060 BKN100 BKN200 16/12
       A3013 RMK AO2A PRESFR
SPECI KBKF 230035Z 36005KT 7SM TS FEW030 BKN060 BKN100 BKN200 18/13
       A3015 RMK AO2A
SPECI KBKF 230025Z 31012KT 2SM +TSRA SCT030 BKN060 BKN100 21/12 A3015
       RMK AO2A

KAPA 222336Z 2300/2324 36008KT P6SM VCSH SCT080 BKN120
     FM230200 24006KT P6SM SCT080 BKN120
     FM230600 19009KT P6SM FEW120 SCT200
     FM231200 23008KT P6SM FEW120 SCT200
     FM231900 32009KT P6SM FEW090 SCT140
METAR KAPA 230053Z 09003KT 10SM FEW060 SCT100 BKN200 20/09 A3013 RMK AO2
       RAB13E27 TSB14E46 SLP151 TS MOV E P0000 T02000089
SPECI KAPA 230047Z 00000KT 10SM FEW060 SCT100 BKN200 21/08 A3014 RMK AO2
       RAB13E27 TSB14E46 TS MOV E P0000
SPECI KAPA 230015Z 00000KT 10SM -TSRA SCT060CB BKN100 BKN200 22/09 A3014
       RMK AO2 RAB13 TSB14 OCNL LTGIC NW TS NW MOV E P0000
       T02170089

METAR KMNH 230052Z AUTO 00000KT 10SM SCT043 SCT080 SCT090 15/10 A3022
       RMK AO2 LTG DSNT NE
METAR KMNH 230032Z AUTO 06003KT 10SM SCT090 16/10 A3022 RMK AO2 LTG DSNT
       N
METAR KMNH 230013Z AUTO 06003KT 10SM SCT045 SCT070 SCT090 17/10 A3022
       RMK AO2

METAR KFMM 230055Z AUTO 08006KT 10SM CLR 19/14 A3005 RMK AO2
       T01900140
METAR KFMM 230035Z AUTO 08006KT 10SM CLR 20/14 A3006 RMK AO2
       T02010140
METAR KFMM 230015Z AUTO 11004KT 10SM CLR 24/10 A3006 RMK AO2
       T02380103

METAR KSTK 230050Z AUTO 16004KT 10SM CLR 21/16 A3002 RMK AO2 LTG DSNT
       E
METAR KSTK 230030Z AUTO 16006KT 10SM CLR 22/16 A3002 RMK AO2 LTG DSNT E
       AND W
METAR KSTK 230010Z AUTO 16009KT 10SM SCT055 SCT065 SCT120 22/16 A3002
       RMK AO2

METAR KAKO 230053Z AUTO 16011KT 10SM CLR 16/14 A3007 RMK AO2 LTG DSNT SE
       AND S SLP144 T01610144
METAR KAKO 222353Z AUTO 15008G20KT 10SM CLR 16/14 A3006 RMK AO2 WSHFT
       2242 LTG DSNT ALQDS RAE11 TSE25 SLP141 P0001 60048 T01610139
       10261 20161 58004
SPECI KAKO 222349Z AUTO 15011G20KT 10SM CLR 16/14 A3007 RMK AO2 WSHFT
       2242 LTG DSNT ALQDS RAE11 TSE25 PRESFR P0001

METAR KLIC 230055Z AUTO 21007KT 10SM CLR 22/12 A3009 RMK AO2 LTG DSNT NE
       SLP133 T02170117
METAR KLIC 222355Z AUTO 19012KT 10SM CLR 23/09 A3010 RMK AO2 LTG DSNT N
       AND NE SLP133 60000 T02330089 10256 20183 56010
METAR KLIC 222255Z AUTO 20014G20KT 10SM FEW110 26/10 A3010 RMK AO2
       SLP130 T02560100

METAR KHEQ 230055Z AUTO 14009KT 10SM -VCTSRA SCT005 BKN011 BKN018 19/14
       A3006 RMK AO2 LTG DSNT N THRU SE
METAR KHEQ 230035Z AUTO 14011KT 10SM -RA SCT005 SCT011 SCT018 21/13
       A3007 RMK AO2 LTG DSNT ALQS
METAR KHEQ 230015Z AUTO 14012KT 10SM -RA CLR 23/13 A3007 RMK AO2 LTG
       DSNT SW AND NW

METAR K2V5 230055Z AUTO 11010KT 10SM -VCTSDZ SCT060 SCT080 OVC110 22/12
       A3006 RMK AO2 LTG DSNT E SW AND W T02220124
METAR K2V5 230035Z AUTO 10009G14KT 10SM VCTS SCT100 BKN120 22/12 A3006
       RMK AO2 LTG DSNT E W AND NW T02230120
METAR K2V5 230015Z AUTO 13010G16KT 10SM SCT085 SCT120 23/12 A3006 RMK
       AO2 T02270119

METAR KITR 230053Z AUTO 17018G31KT 10SM FEW120 22/13 A3006 RMK AO2 PK
       WND 17032/0004 SLP138 T02220128
METAR KITR 222353Z AUTO 17024G33KT 10SM CLR 23/13 A3009 RMK AO2 PK WND
       17033/2349 SLP147 60000 T02330128 10250 20206 56017
METAR KITR 222253Z AUTO 17019G27KT 10SM FEW048 24/12 A3009 RMK AO2 PK
       WND 17032/2223 SLP147 T02390122

Sunrise/Sunset for 09/22/2014
Fort Collins - 06:47:51 MDT / 18:58:56 MDT
Denver       - 06:47:29 MDT / 18:58:25 MDT
Sterling     - 06:40:25 MDT / 18:51:33 MDT

Denver/Boulder (KFTG) 09/23/14 00:59 UTC
Radar VAD winds      Height      Dir/Spd(kt)
                  30000 FT MSL...260/030
                  28000 FT MSL...239/024
                  25000 FT MSL...254/035
                  24000 FT MSL...257/029
                  22000 FT MSL...262/023
                  20000 FT MSL...244/025
                  19000 FT MSL...250/025
                  18000 FT MSL...260/023
                  17000 FT MSL...271/023
                  16000 FT MSL...273/024
                  15000 FT MSL...278/020
                  14000 FT MSL...277/020
                  13000 FT MSL...293/018
                  12000 FT MSL...294/019
                  11100 FT MSL...291/019
                  11000 FT MSL...299/017
                  10000 FT MSL...293/022
                   9900 FT MSL...294/022
                   9000 FT MSL...298/021
                   8900 FT MSL...298/022
                   8000 FT MSL...309/019
                   8000 FT MSL...307/019
                   7300 FT MSL...327/018
                   7000 FT MSL...316/021
                   6600 FT MSL...341/020

Denver/Boulder Aviation Discussion
Issued at 1941 UTC Monday, September 22, 2014

.AVIATION...(FOR THE TAFS THROUGH 00Z TUESDAY LATE AFTERNOON)
ISSUED AT 140 PM MDT MON SEP 22 2014
EXPECT SCATTERED SHOWERS AND THUNDERSTORMS OVER TERMINALS THROUGH
LATE AFTERNOON...THEN DIMINISHING CHANCES BY EARLY EVENING.
CURRENT SOUTHEAST WINDS WILL BECOME VARIABLE AND GUSTY WITH
SHOWERS...BEFORE SHIFTING EAST AND SOUTHEAST THIS EVENING.


* * * * * Southeast Colorado * * * * *


METAR KAFF 230058Z AUTO 32010KT 10SM FEW095 19/11 A3018 RMK AO2 SLP149
       T01900107
METAR KAFF 222358Z AUTO 28003KT 10SM CLR 21/11 A3017 RMK AO2 SLP141
       60000 T02140106 10225 20165 56007
METAR KAFF 222258Z AUTO 19010KT 10SM CLR 22/11 A3017 RMK AO2 LTG DSNT N
       SLP136 T02210107

KCOS 222320Z 2300/2324 16010KT P6SM VCTS FEW040 BKN050CB BKN110
      TEMPO 2300/2301 VRB20G30KT -TSRA BKN040CB
     FM230100 02010KT P6SM SCT100 SCT200
     FM230600 03006KT P6SM FEW130
     FM231800 16010KT P6SM SCT060 SCT130
METAR KCOS 230054Z 19009KT 10SM FEW120 SCT150 SCT200 20/09 A3016 RMK AO2
       SLP145 T02000094
METAR KCOS 222354Z 18015KT 10SM SCT120 SCT150 23/09 A3015 RMK AO2 SLP137
       60000 T02280094 10244 20178 58015
METAR KCOS 222254Z 16012KT 10SM SCT110 BKN150 BKN200 23/09 A3017 RMK AO2
       SLP142 OCNL LTGICCG DSNT N CB DSNT N MOV E T02280094


METAR KFLY 230055Z AUTO 19006KT 10SM SCT110 17/09 A3021 RMK AO2
       T01680091
METAR KFLY 230035Z AUTO 17004KT 10SM SCT110 19/09 A3020 RMK AO2
       T01890090
METAR KFLY 230015Z AUTO 17012KT 10SM CLR 20/09 A3020 RMK AO2
       T02020089

KFCS 2223/2403 15009KT 9999 BKN100 QNH3016INS
      TEMPO 2301/2302 VRB15G30KT VCTS BKN080CB
      BECMG 2302/2303 VRB06KT 9999 SCT100 QNH3019INS
      BECMG 2314/2315 27009KT 9999 FEW100 QNH3018INS
      BECMG 2320/2321 17012KT 9999 VCTS SCT150CB QNH3017INS
      T24/2321Z T12/2311Z AMD 222303
METAR KFCS 230058Z AUTO 20011KT 10SM CLR 20/10 A3012 RMK AO2 SLP164
       T02040104
METAR KFCS 222358Z AUTO 18011KT 10SM BKN120 24/11 A3012 RMK AO2 SLP155
       T02380105 10249 20166 57015
METAR KFCS 222258Z AUTO 18012KT 10SM BKN120 24/10 A3013 RMK AO2 LTG DSNT
       N SLP154 T02430101

KPUB 222320Z 2300/2324 15010KT P6SM VCTS SCT060CB BKN120
      TEMPO 2300/2301 VRB15G25KT
     FM230300 06007KT P6SM SCT120 SCT200
     FM230600 VRB05KT P6SM FEW140
     FM232000 17008KT P6SM SCT070 SCT140
METAR KPUB 230053Z 00000KT 10SM CLR 24/13 A3005 RMK AO2 SLP124
       T02440128
METAR KPUB 222353Z 16007KT 10SM BKN120 26/12 A3006 RMK AO2 SLP122 60000
       T02610122 10261 20206 58013
METAR KPUB 222253Z 18004KT 10SM BKN110 25/12 A3008 RMK AO2 SLP129
       T02500122

METAR KVTP 230047Z AUTO 19005KT 10SM SCT035 11/06 A3044 RMK AO2
METAR KVTP 230032Z AUTO 20004G14KT 10SM CLR 12/07 A3044 RMK AO2 LTG DSNT
       N
METAR KVTP 230010Z AUTO 20008G15KT 180V250 10SM SCT032 SCT039 12/07
       A3044 RMK AO2 LTG DSNT S AND SW

METAR KTAD 230054Z AUTO 21016G21KT 10SM SCT110 21/13 A3014 RMK AO2
       SLP137 T02060128
METAR KTAD 222354Z AUTO 20012KT 10SM CLR 23/12 A3016 RMK AO2 SLP136
       60000 T02330122 10261 20211 58007
METAR KTAD 222254Z AUTO 16011G19KT 10SM OVC110 22/13 A3016 RMK AO2 PK
       WND 23033/2204 LTG DSNT S RAB05E34 SLP142 P0000 T02220128

METAR KLHX 230053Z AUTO 18011G20KT 10SM BKN110 24/14 A3005 RMK AO2
       SLP129 T02390144 $
METAR KLHX 222353Z AUTO 15005KT 10SM SCT120 22/16 A3006 RMK AO2 SLP135
       60041 T02220156 10283 20206 56013 $
METAR KLHX 222253Z AUTO 17011KT 10SM BKN060 23/16 A3008 RMK AO2 LTG DSNT
       SE AND S SLP139 T02280156 $

METAR KLAA 230053Z AUTO 19018G29KT 9SM FEW120 23/14 A3004 RMK AO2 PK WND
       18030/0035 SLP138 T02330144
METAR KLAA 222353Z AUTO 18019G25KT 9SM CLR 23/15 A3005 RMK AO2 PK WND
       20027/2339 LTG DSNT SE RAB01E14 SLP143 P0000 60000 T02330150
       10278 20217 57013
METAR KLAA 222253Z AUTO 16014KT 9SM OVC110 23/16 A3006 RMK AO2 PK WND
       18028/2207 RAB21E48 SLP145 P0000 T02280161

METAR KSPD 230056Z AUTO 20018G29KT 21/14 A3014 RMK AO1 PK WND 20030/2357
       SLP158 T02110144
METAR KSPD 222356Z AUTO 19024G31KT 23/14 A3017 RMK AO1 PK WND 19031/2355
       SLP163 T02280139 10250 20206 55006
METAR KSPD 222256Z AUTO 19021G28KT 22/14 A3016 RMK AO1 PK WND 20032/2201
       SLP161 T02220139

Sunrise/Sunset for 09/22/2014
Burlington - 06:36:46 MDT / 18:47:38 MDT
Pueblo     - 06:46:15 MDT / 18:56:54 MDT
Lamar      - 06:38:15 MDT / 18:48:53 MDT

Pueblo (KPUX) 09/23/14 01:00 UTC
Radar VAD winds      Height      Dir/Spd(kt)
                  12000 FT MSL...289/024
                  11000 FT MSL...277/023
                  10000 FT MSL...265/020
                   9700 FT MSL...271/017
                   9000 FT MSL...264/018
                   8000 FT MSL...233/014
                   7900 FT MSL...223/013
                   7100 FT MSL...197/016
                   7000 FT MSL...195/017
                   6400 FT MSL...187/017
                   6000 FT MSL...190/017
                   5900 FT MSL...187/015
                   5700 FT MSL...186/015

Pueblo Aviation Discussion
Issued at 2116 UTC Monday, September 22, 2014

.AVIATION...(FOR THE 18Z TAFS THROUGH 18Z TUESDAY AFTERNOON)
ISSUED AT 315 PM MDT MON SEP 22 2014
ISOLATED TO SCATTERED SHOWERS AND THUNDERSTORMS ARE EXPECTED TO
CONTINUE FROM LATER THIS AFTERNOON INTO THIS EVENING...ESPECIALLY
NEAR AND EAST OF THE KPUB AND KCOS TAF SITES. THE STRONGER STORMS
WILL BE CAPABLE OF GENERATING MVFR CONDITIONS AT TIMES IN
COMBINATION WITH GUSTY WINDS AND HAIL. IMPROVING CONDITIONS ARE
THEN PROJECTED AFTER 04Z TUESDAY WITH VFR CONDITIONS THEN EXPECTED
AT THE KALS...KCOS AND KPUB TAF SITES FROM LATER TONIGHT INTO
TUESDAY AS DRIER ZONAL TO NORTHWESTERLY UPPER FLOW DEVELOPS OVER
SOUTHERN COLORADO.  


* * * * * Northwest Colorado * * * * *

METAR KCAG 230053Z AUTO 26008KT 10SM FEW095 BKN120 18/07 A3020 RMK AO2
       SLP176 T01830072 $
METAR KCAG 222353Z AUTO 26010KT 10SM OVC110 19/08 A3020 RMK AO2 SLP172
       60000 T01940078 10228 20156 56003 $
METAR KCAG 222253Z AUTO 26015G19KT 10SM SCT070 SCT100 BKN120 22/07 A3020
       RMK AO2 SLP163 T02220067 $

METAR KHDN 230055Z AUTO 23008KT 10SM SCT060 OVC120 17/07 A3022 RMK
       AO1
METAR KHDN 230035Z AUTO 25010KT 10SM BKN110 18/07 A3022 RMK AO1 LTG DSNT
       E
METAR KHDN 230015Z AUTO 25007KT 10SM BKN110 18/07 A3021 RMK AO1 LTG DSNT
       NW


METAR K33V 230055Z AUTO 01007KT 10SM SCT065 SCT075 SCT090 10/05 A3030
       RMK AO2
METAR K33V 230035Z AUTO 36009KT 10SM SCT065 BKN080 BKN090 10/05 A3030
       RMK AO2
METAR K33V 230015Z AUTO 35012G17KT 10SM SCT048 SCT055 BKN080 10/04 A3030
       RMK AO2

METAR KEEO 230053Z AUTO 12004KT 10SM FEW055 OVC110 16/09 A3023 RMK AO2
       SLP179 T01610094
METAR KEEO 222353Z AUTO 21011KT 10SM FEW085 OVC110 18/08 A3023 RMK AO2
       RAE2257 SLP171 P0000 60001 T01830078 10206 20161 55003
METAR KEEO 222253Z AUTO 25008KT 10SM -RA FEW055 OVC075 19/08 A3022 RMK
       AO2 LTG DSNT SE RAB47 SLP168 P0000 T01890078

METAR K20V 230055Z AUTO 26008KT 10SM SCT075 OVC090 13/07 A3030 RMK
       AO2
METAR K20V 230035Z AUTO 26005KT 10SM SCT080 OVC100 13/07 A3030 RMK AO2
       LTG DSNT NW
METAR K20V 230015Z AUTO 26004KT 10SM SCT060 BKN080 OVC100 14/07 A3030
       RMK AO2

METAR K0CO 230054Z AUTO 30017G25KT M1/4SM FG OVC001 01/00 A3056 RMK
       AO2
METAR K0CO 230035Z AUTO 31015G23KT 7SM SCT017 SCT022 BKN029 02/01 A3057
       RMK AO2 LTG DSNT E
METAR K0CO 230015Z AUTO 31018G30KT 10SM SCT022 BKN028 BKN033 03/02 A3057
       RMK AO2

KGJT 222322Z 2300/2324 30010KT P6SM FEW050 SCT080
     FM230200 04004KT P6SM FEW110
     FM230600 10009KT P6SM FEW150
     FM231500 VRB03KT P6SM SKC
     FM231900 30005KT P6SM FEW130
METAR KGJT 230053Z 00000KT 10SM SCT100 21/12 A3012 RMK AO2 SLP146
       T02110117
METAR KGJT 222353Z 31009KT 10SM SCT100 23/09 A3012 RMK AO2 SLP141
       T02280094 10256 20217 56011
METAR KGJT 222253Z 31011KT 10SM CLR 26/11 A3013 RMK AO2 SLP139
       T02560106

KRIL 222322Z 2300/2324 25010KT P6SM VCSH SCT050 BKN100
     FM230200 11004KT P6SM BKN100
     FM230600 00000KT P6SM FEW150
     FM231900 29008KT P6SM SCT120
METAR KRIL 230053Z AUTO 00000KT 10SM FEW120 20/09 A3017 RMK AO2 RAB07E19
       SLP163 P0000 T02000094
METAR KRIL 222353Z AUTO 35004KT 10SM FEW110 22/09 A3017 RMK AO2 WSHFT
       2314 SLP159 T02220094 10239 20167 55008
SPECI KRIL 222334Z AUTO 01009G15KT 10SM FEW120 21/09 A3017 RMK AO2 WSHFT
       2314 T02060094

METAR K5SM 230100Z AUTO 00000KT 10SM SCT075 08/07 A3050 RMK AO2
METAR K5SM 230040Z AUTO 00000KT 10SM SCT019 SCT029 BKN075 09/08 A3051
       RMK AO2 LTG DSNT N
METAR K5SM 230018Z AUTO 00000KT 10SM SCT015 SCT023 BKN080 10/08 A3051
       RMK AO2

KEGE 222322Z 2300/2324 VRB03KT P6SM VCSH SCT070 SCT090
     FM230200 03005KT P6SM BKN090
     FM230600 08006KT P6SM SCT090 SCT150
     FM231200 VRB03KT P6SM SCT090
     FM231900 25010G17KT P6SM SCT110 AMD LTD TO CLD VIS AND WIND
      2301/2313
METAR KEGE 230050Z 33008G14KT 10SM VCSH SCT085 BKN120 18/07 A3025
METAR KEGE 222350Z 00000KT 10SM FEW050 BKN090 20/11 A3025
METAR KEGE 222250Z 00000KT 10SM FEW070 19/11 A3026

KASE 222322Z 2300/2324 29004KT P6SM VCSH SCT080 BKN100
     FM230200 20004KT P6SM SCT080
     FM230600 21005KT P6SM SCT100
     FM231400 VRB03KT P6SM SKC
     FM231900 33008KT P6SM BKN100
METAR KASE 230053Z COR 00000KT 10SM SCT080 BKN100 14/09 A3032 RMK AO2
       SLP167 T01440089
METAR KASE 230053Z 00000KT 10SM SCT080 OVC100 14/09 A3032 RMK AO2 SLP167
       T01440089
METAR KASE 222353Z 28003KT 10SM SCT075 BKN085 BKN100 16/08 A3030 RMK AO2
       RAB32E41 SLP159 P0000 60000 T01560078 10189 20133 56012

METAR KCCU 230055Z AUTO 26011G26KT 10SM SCT036 SCT044 SCT055 07/01 A3055
       RMK AO2
METAR KCCU 230035Z AUTO 25017G28KT 10SM CLR 08/01 A3055 RMK AO2 LTG DSNT
       NW
METAR KCCU 230015Z AUTO 26017G21KT 10SM SCT024 SCT034 BKN045 08/02 A3055
       RMK AO2

METAR KLXV 230053Z AUTO 32009KT 10SM BKN070 BKN090 11/03 A3042 RMK AO2
       SLP156 T01060033
METAR KLXV 222353Z AUTO 33013G19KT 10SM OVC060 12/03 A3041 RMK AO2
       SLP148 60000 T01170033 10150 20117 51001
METAR KLXV 222253Z AUTO 32007G16KT 10SM BKN070 OVC080 12/03 A3041 RMK
       AO2 SLP144 T01220028

Sunrise/Sunset for 09/22/2014
Rangely           - 07:02:44 MDT / 19:13:43 MDT
Grand Junction    - 07:01:55 MDT / 19:12:42 MDT
Steamboat Springs - 06:54:52 MDT / 19:05:56 MDT

Grand Junction (KGJX) 09/23/14 00:56 UTC
Radar VAD winds      Height      Dir/Spd(kt)
                  12000 FT MSL...248/017
                  11000 FT MSL...250/015
                  10400 FT MSL...229/014

Grand Junction Aviation Discussion
Issued at 2306 UTC Monday, September 22, 2014

.AVIATION...(FOR THE 00Z TAFS THROUGH 00Z TUESDAY EVENING)
ISSUED AT 505 PM MDT MON SEP 22 2014
ISOLATED SHOWERS AND THUNDERSTORMS OVER THE COLORADO MOUNTAINS
WILL DIMINISH SHORTLY AFTER SUNSET. THIS ACTIVITY POSES VERY
LITTLE THREAT TO TAF SITES WHICH WILL CONTINUE TO EXPERIENCE VFR
CONDITIONS THROUGH TUESDAY AFTERNOON.


* * * * * Southwest Colorado * * * * *

METAR KAJZ 230055Z AUTO 23003KT 10SM RA SCT120 24/13 A3015 RMK AO2
       T02350126
METAR KAJZ 230035Z AUTO 00000KT 10SM RA SCT095 BKN110 24/12 A3015 RMK
       AO2 LTG DSNT N T02390123
METAR KAJZ 230015Z AUTO 22003KT 7SM RA BKN095 OVC110 25/10 A3015 RMK AO2
       T02450104

KMTJ 222322Z 2300/2324 36006KT P6SM BKN100
     FM230200 14007KT P6SM SCT100
     FM231400 VRB03KT P6SM SKC
     FM231900 35005KT P6SM FEW120
METAR KMTJ 230053Z AUTO 19003KT 10SM FEW080 21/12 A3020 RMK AO2 SLP157
       T02110117
METAR KMTJ 222353Z AUTO 00000KT 10SM SCT090 23/10 A3020 RMK AO2 RAB13E23
       SLP153 P0000 60000 T02330100 10244 20211 58006
METAR KMTJ 222253Z AUTO 36006KT 10SM OVC095 22/11 A3021 RMK AO2 RAB41E52
       SLP160 P0000 T02170111

METAR KGUC 230055Z AUTO 29008KT 10SM BKN090 OVC110 18/06 A3033 RMK
       AO1
METAR KGUC 230035Z AUTO 33007KT 10SM FEW065 OVC090 18/07 A3032 RMK
       AO1
METAR KGUC 230015Z AUTO 36008KT 10SM FEW065 OVC100 18/07 A3032 RMK
       AO1

METAR K7BM 230054Z AUTO 29007KT 240V350 10SM CLR 12/03 A3041 RMK AO2
METAR K7BM 230034Z AUTO 36003G14KT 10SM CLR 13/03 A3041 RMK AO2 LTG DSNT
       N
METAR K7BM 230014Z AUTO 28015G23KT 240V350 10SM SCT048 SCT065 14/04
       A3042 RMK AO2

METAR KAEJ 230055Z AUTO 32004KT 10SM CLR 16/05 A3030 RMK AO2
       T01550045
METAR KAEJ 230035Z AUTO 27010KT 10SM SCT060 SCT075 17/05 A3031 RMK AO2
       T01650047
METAR KAEJ 230015Z AUTO 26020G27KT 10SM SCT060 BKN075 18/04 A3030 RMK
       AO2 T01770039

METAR KANK 230055Z AUTO 21007KT 10SM CLR 19/07 A3033 RMK AO1
       T01850073
METAR KANK 230035Z AUTO 25006KT 10SM CLR 20/07 A3033 RMK AO1
       T02000067
METAR KANK 230015Z AUTO 24011KT 10SM CLR 20/07 A3033 RMK AO1
       T02030074

METAR KMYP 230107Z AUTO 27025G31KT 10SM SCT003 SCT010 SCT017 06/04 A3065
       RMK AO2
METAR KMYP 230047Z AUTO 26022G32KT 10SM SCT005 SCT010 BKN017 07/05 A3065
       RMK AO2 LTG DSNT NW
METAR KMYP 230022Z AUTO 26023G32KT 10SM SCT007 SCT012 SCT019 07/05 A3064
       RMK AO2

METAR KAIB 230055Z AUTO 28004KT 10SM CLR 22/10 A3023 RMK AO2
METAR KAIB 230035Z AUTO 28005KT 10SM SCT110 23/10 A3023 RMK AO2
METAR KAIB 230015Z AUTO 28005KT 10SM BKN100 23/10 A3023 RMK AO2

KTEX 222322Z 2300/2324 25009KT P6SM FEW080
     FM230200 16005KT P6SM SKC
     FM230600 13006KT P6SM SKC
     FM231900 28007KT P6SM SCT110 AMD NOT SKED

METAR K04V 230055Z AUTO 26004KT 10SM SCT075 SCT100 16/09 A3030 RMK
       AO2
METAR K04V 230035Z AUTO 29006KT 10SM SCT100 17/09 A3030 RMK AO2
METAR K04V 230014Z AUTO 31007KT 10SM CLR 18/08 A3029 RMK AO2

METAR KCEZ 230053Z AUTO 29006KT 10SM CLR 23/07 A3020 RMK AO2 SLP156
       T02280067
METAR KCEZ 222353Z AUTO 28010KT 10SM CLR 24/06 A3020 RMK AO2 SLP154
       T02440056 10261 20217 57015
METAR KCEZ 222253Z AUTO 28010KT 10SM CLR 25/06 A3022 RMK AO2 SLP157
       T02500056

KDRO 222322Z 2300/2324 22007KT P6SM SCT050
     FM230200 05004KT P6SM SCT100
     FM230600 01005KT P6SM SCT150
     FM231400 VRB03KT P6SM SCT080
     FM231900 27010KT P6SM FEW110 SCT200 AMD NOT SKED
METAR KDRO 230053Z AUTO 32008KT 10SM CLR 21/08 A3024 RMK AO2 SLP165
       T02060083
METAR KDRO 222353Z AUTO 26011KT 10SM FEW065 23/08 A3024 RMK AO2 SLP159
       T02280078
METAR KDRO 222253Z AUTO A3024 RMK AO2 SLPNO PWINO $

METAR KPSO 230055Z AUTO 23008KT 10SM CLR 20/08 A3032 RMK AO2
       T01970076
METAR KPSO 230035Z AUTO 23007KT 10SM CLR 20/08 A3032 RMK AO2
       T02000079
METAR KPSO 230015Z AUTO 23008G14KT 10SM CLR 20/08 A3032 RMK AO2
       T02040078

METAR KCPW 230101Z AUTO 22012G24KT 10SM BKN010 BKN015 BKN022 06/06 A3058
       RMK AO2
METAR KCPW 230034Z AUTO 23019G24KT 10SM BKN010 BKN016 BKN022 06/06 A3058
       RMK AO2 LTG DSNT SE
METAR KCPW 230017Z AUTO 23019G26KT 10SM BKN008 BKN011 OVC044 07/07 A3057
       RMK AO2 LTG DSNT SE

KALS 222320Z 2300/2324 17014KT P6SM VCTS SCT060CB OVC090
     FM230100 26010KT P6SM SCT100 SCT200
     FM230200 36006KT P6SM FEW130
     FM232000 18007KT P6SM SCT050 SCT130
METAR KALS 230052Z AUTO 17011KT 10SM BKN100 17/09 A3026 RMK AO2 SLP164
       T01670094
METAR KALS 222352Z AUTO 19013KT 10SM FEW040 SCT085 BKN110 18/09 A3027
       RMK AO2 RAB30E39 SLP163 P0000 60000 T01780094 10233 20178
       58007
METAR KALS 222252Z AUTO 18015KT 10SM BKN110 21/08 A3027 RMK AO2 RAB04E35
       SLP158 P0000 T02060083

Sunrise/Sunset for 09/22/2014
Vail    - 06:53:05 MDT / 19:03:59 MDT
Durango - 06:59:20 MDT / 19:09:47 MDT
Alamosa - 06:51:20 MDT / 19:01:49 MDT

Grand Junction (KGJX) 09/23/14 00:56 UTC
Radar VAD winds      Height      Dir/Spd(kt)
                  12000 FT MSL...248/017
                  11000 FT MSL...250/015
                  10400 FT MSL...229/014

Grand Junction Aviation Discussion
Issued at 2306 UTC Monday, September 22, 2014

.AVIATION...(FOR THE 00Z TAFS THROUGH 00Z TUESDAY EVENING)
ISSUED AT 505 PM MDT MON SEP 22 2014
ISOLATED SHOWERS AND THUNDERSTORMS OVER THE COLORADO MOUNTAINS
WILL DIMINISH SHORTLY AFTER SUNSET. THIS ACTIVITY POSES VERY
LITTLE THREAT TO TAF SITES WHICH WILL CONTINUE TO EXPERIENCE VFR
CONDITIONS THROUGH TUESDAY AFTERNOON.


* * * * * Arizona * * * * *

KPGA 222323Z 2300/2324 VRB05KT P6SM SKC
METAR KPGA 230053Z AUTO 00000KT 10SM CLR 29/04 A3008 RMK AO2 SLP123
       T02890039
METAR KPGA 222353Z AUTO VRB05KT 10SM CLR 29/04 A3008 RMK AO2 SLP121
       T02940039 10306 20261 57018
METAR KPGA 222253Z AUTO 29005KT 10SM CLR 30/05 A3010 RMK AO2 SLP128
       T03000050

METAR KRQE 230053Z AUTO 27006KT 10SM CLR 23/08 A3026 RMK AO2 SLP131
       T02330083 TSNO $
METAR KRQE 222353Z AUTO 27008KT 10SM CLR 24/10 A3026 RMK AO2 SLP129
       60003 T02390100 10250 20167 56012 TSNO $
METAR KRQE 222253Z AUTO 28008KT 10SM SCT060 BKN075 25/11 A3027 RMK AO2
       SLP133 T02500106 TSNO $

Flagstaff (KFSX) 09/23/14 00:58 UTC
Radar VAD winds      Height      Dir/Spd(kt)
                   8000 FT MSL...246/007

Flagstaff Aviation Discussion
Issued at 2216 UTC Monday, September 22, 2014

.AVIATION...
FOR THE 00Z PACKAGE...ISOLATED TO SCATTERED SHRA/TSRA EAST OF A
FOUR CORNERS TO WINSLOW LINE...DIMINISHING AFT 01Z. LOCAL
MVFR/IFR POSSIBLE IN HEAVY RAIN. ISOLATED -TSRA WILL BE POSSIBLE
IN THE WHITE MTNS TONIGHT AND AGAIN TUESDAY AFTERNOON.
OTHERWISE...VFR CONDITIONS EXPECTED. AVIATION DISCUSSION NOT
UPDATED FOR AMENDMENTS.


* * * * * Utah * * * * *

KSLC 222334Z 2300/2406 32005KT P6SM SCT080 BKN110
     FM230300 15007KT P6SM FEW070 SCT110
     FM231900 33008KT P6SM SCT120
     FM240300 15007KT P6SM SKC
METAR KSLC 230053Z 00000KT 10SM FEW085 BKN110 23/11 A3009 RMK AO2 SLP146
       T02280106
METAR KSLC 222353Z 01003KT 10SM FEW085 SCT110 24/09 A3009 RMK AO2 SLP144
       T02440094 10250 20217 58008
METAR KSLC 222253Z 32003KT 10SM SCT085 BKN110 24/11 A3010 RMK AO2 SLP148
       T02390106

KVEL 222322Z 2300/2324 23005KT P6SM FEW120 BKN150
     FM230200 34004KT P6SM SCT150
     FM230600 31005KT P6SM SCT110
     FM231500 VRB03KT P6SM SKC
     FM231900 17005KT P6SM FEW130
METAR KVEL 230053Z AUTO 00000KT 10SM OVC120 20/12 A3014 RMK AO2 SLP162
       T02000122
METAR KVEL 222353Z AUTO 24003KT 10SM SCT120 21/12 A3015 RMK AO2 SLP162
       T02060117 10228 20172 55008
METAR KVEL 222253Z AUTO 23005KT 10SM FEW120 21/11 A3015 RMK AO2 SLP162
       T02110106

METAR KPUC 230053Z AUTO 00000KT 10SM BKN100 21/11 A3020 RMK AO2 SLP173
       T02060111
METAR KPUC 222353Z AUTO 23003KT 10SM OVC090 21/11 A3019 RMK AO2 SLP172
       T02060111 10211 20172 56008
METAR KPUC 222253Z AUTO 00000KT 10SM BKN100 21/11 A3020 RMK AO2 SLP171
       T02110111

KCNY 222322Z 2300/2324 28007KT P6SM SCT150
     FM230200 35006KT P6SM FEW110
     FM230600 08003KT P6SM SKC
     FM231400 VRB03KT P6SM SKC
     FM231900 30003KT P6SM FEW130
METAR KCNY 230053Z AUTO 35006KT 10SM CLR 24/11 A3008 RMK AO2 SLP140
       T02440111
METAR KCNY 222353Z AUTO 33007KT 10SM FEW120 26/12 A3008 RMK AO2 SLP139
       T02560117 10272 20228 56013
METAR KCNY 222253Z AUTO 28009KT 10SM CLR 27/10 A3009 RMK AO2 SLP137
       T02720100


Salt Lake City (KMTX) 09/23/14 01:00 UTC
Radar VAD winds      Height      Dir/Spd(kt)
                   7200 FT MSL...229/004
                   6900 FT MSL...244/003

Salt Lake City Aviation Discussion
Issued at 2215 UTC Monday, September 22, 2014

.AVIATION...THERE IS A 10 PERCENT CHANCE OF PASSING RAIN SHOWERS
LOWERING CEILINGS BELOW 7000 FT AND CREATING PERIODS OF GUSTY AND
ERRATIC WINDS UNTIL ABOUT 00Z. 


* * * * * Wyoming * * * * *

KEVW 230028Z 2300/2324 26014G22KT P6SM FEW080
     FM230100 24012KT P6SM SCT080
     FM230800 19006KT P6SM SCT080 BKN100
     FM231700 25012KT P6SM FEW080=
METAR KEVW 230053Z AUTO 25007KT 10SM CLR 16/06 A3025 RMK AO2 SLP178
       T01560061
METAR KEVW 222353Z AUTO 25015G23KT 10SM FEW050 17/05 A3025 RMK AO2
       SLP173 T01720050 10194 20156 50000
METAR KEVW 222253Z AUTO 25016G25KT 10SM FEW065 19/05 A3025 RMK AO2 PK
       WND 24027/2213 SLP170 T01890050

KRKS 222327Z 2300/2324 27014G24KT P6SM VCSH SCT030 BKN050
     FM230100 27013KT P6SM SCT040 BKN060
     FM230500 25010KT P6SM BKN060
     FM231700 26014G20KT P6SM SCT070
METAR KRKS 230054Z AUTO 30009KT 10SM OVC110 16/06 A3021 RMK AO2 LTG DSNT
       E AND SE SLP177 T01610061
METAR KRKS 222354Z AUTO 30011KT 10SM CLR 17/07 A3020 RMK AO2 LTG DSNT SE
       SLP171 60000 T01670067 10200 20133 58003
METAR KRKS 222254Z AUTO 28013KT 10SM CLR 18/07 A3021 RMK AO2 RAB00E18
       SLP170 P0000 T01830072

KRWL 222338Z 2300/2324 23010G17KT P6SM BKN100
     FM231700 25014G21KT P6SM SCT100
METAR KRWL 230053Z AUTO 23012KT 10SM SCT070 BKN110 15/08 A3019 RMK AO2
       SLP166 T01500078
METAR KRWL 222353Z AUTO 23009KT 10SM FEW060 SCT080 OVC100 17/08 A3019
       RMK AO2 SLP154 60005 T01670078 10194 20111 56006
METAR KRWL 222253Z AUTO 21012G18KT 10SM FEW075 BKN095 17/08 A3019 RMK
       AO2 SLP155 T01670078

KLAR 222338Z 2300/2324 25010KT P6SM VCSH SCT080 BKN150
     FM230300 28008KT P6SM BKN080
     FM231700 28015G22KT P6SM SCT080
METAR KLAR 230053Z AUTO 24010KT 10SM OVC095 13/05 A3023 RMK AO2 SLP155
       T01330050
METAR KLAR 222353Z AUTO 31012KT 10SM BKN110 13/07 A3024 RMK AO2 SLP164
       60007 T01280072 10194 20100 53003
METAR KLAR 222253Z AUTO 26012KT 10SM FEW055 SCT075 OVC100 17/06 A3021
       RMK AO2 PK WND 24039/2206 RAB07E25 SLP140 P0001 T01670056

KCYS 222338Z 2300/2324 VRB06KT P6SM VCSH BKN080
     FM230600 27010KT P6SM SCT120
     FM231500 30013G19KT P6SM SCT100
     FM231900 29015G24KT P6SM BKN080
     FM232300 31011G18KT P6SM SCT080
METAR KCYS 230053Z 31010KT 10SM OVC095 18/08 A3017 RMK AO2 SLP155
       T01780078
METAR KCYS 222353Z 01005KT 10SM BKN075 OVC090 22/06 A3015 RMK AO2 SLP137
       60002 T02220061 10233 20150 55004
METAR KCYS 222253Z 18003KT 10SM SCT080 BKN095 22/07 A3014 RMK AO2 SLP134
       T02170067

Riverton (KRIW) 09/23/14 01:00 UTC
Radar VAD winds      Height      Dir/Spd(kt)
                  35000 FT MSL...321/011
                  32400 FT MSL...318/018
                  30000 FT MSL...257/005
                  28000 FT MSL...278/011
                  27100 FT MSL...254/008
                  26000 FT MSL...255/015
                  25000 FT MSL...281/025
                  24000 FT MSL...282/005
                  23000 FT MSL...038/002
                  20000 FT MSL...359/004
                  19600 FT MSL...341/004
                  19000 FT MSL...279/026
                  18000 FT MSL...275/022
                  17000 FT MSL...272/033
                  16000 FT MSL...280/024
                  15000 FT MSL...278/026
                  14600 FT MSL...323/008
                  14000 FT MSL...269/038
                  13000 FT MSL...276/027
                  12000 FT MSL...270/029
                  11000 FT MSL...288/019
                  10000 FT MSL...281/020
                  10000 FT MSL...302/017
                   9000 FT MSL...298/011
                   9000 FT MSL...300/020
                   8200 FT MSL...312/017
                   8000 FT MSL...304/023
                   7500 FT MSL...317/014
                   7000 FT MSL...308/027
                   6700 FT MSL...315/013
                   6200 FT MSL...312/025
                   6000 FT MSL...315/023
                   6000 FT MSL...311/022

Cheyenne (KCYS) 09/23/14 00:59 UTC
Radar VAD winds      Height      Dir/Spd(kt)
                  26000 FT MSL...263/036
                  25000 FT MSL...266/029
                  24000 FT MSL...272/031
                  23000 FT MSL...270/032
                  22000 FT MSL...269/034
                  21000 FT MSL...269/034
                  20000 FT MSL...275/039
                  20000 FT MSL...288/040
                  19000 FT MSL...269/038
                  18000 FT MSL...269/028
                  17300 FT MSL...259/028
                  17000 FT MSL...251/033
                  16000 FT MSL...272/026
                  15100 FT MSL...270/028
                  15000 FT MSL...269/026
                  14000 FT MSL...263/025
                  13200 FT MSL...254/020
                  13000 FT MSL...262/017
                  12000 FT MSL...220/031
                  11000 FT MSL...239/021
                  10000 FT MSL...316/022
                   9000 FT MSL...326/022
                   8000 FT MSL...300/020
                   7000 FT MSL...298/023

Riverton Aviation Discussion
Issued at 2035 UTC Monday, September 22, 2014

.AVIATION.../00Z ISSUANCE/
CONSIDERABLE LOW CLOUDS AND PATCHY FOG IN AND AROUND THE MOUNTAINS 
WILL CONTINUE WEST OF THE CONTINENTAL DIVIDE NOT ONLY THIS AFTERNOON 
BUT WILL LIKELY BECOME EVEN MORE OF A AVIATION CONCERN AGAIN TONIGHT 
AS MORE FOG REDEVELOPS AND VERY LOW STRATUS REDEVELOPS IN SOME 
AREAS. IN ADDITION SCATTERED SHOWERS AND ISOLATED THUNDERSTORMS WILL 
CONTINUE THROUGH 02Z THIS EVENING. WIDESPREAD MOUNTAIN OBSCURATION 
WILL CONTINUE THROUGH TONIGHT. AFTER MORNING LOW CLOUDS AND 
FOG...CONDITIONS WILL GRADUALLY IMPROVE WITH VFR IN MOST AREAS BY 
LATE MORNING. ISOLATED THUNDERSTORMS ARE POSSIBLE IN THE NORTHWEST 
MOUNTAINS TUESDAY AFTERNOON.
EAST OF THE DIVIDE...SCATTERED SHOWERS AND ISOLATED THUNDERSTORMS
WILL LINGER IN THE NORTH HALF OF THE AREA INTO THE EVENING WITH
MORE ISOLATED COVERAGE FURTHER SOUTH. IMPROVEMENT WILL GRADUALLY
RETURN WITH SHOWERS DIMINISHING LATER THIS EVENING. TUESDAY WILL
BE DRY IN MOST AREAS WITH JUST A SMALL CHANCE OF AN ISOLATED
THUNDERSTORM IN THE MOUNTAINS.

Cheyenne Aviation Discussion
Issued at 0031 UTC Tuesday, September 23, 2014

.AVIATION...(FOR THE 00Z TAFS THROUGH 00Z TUESDAY AFTERNOON)
ISSUED AT 607 PM MDT MON SEP 22 2014 
ISOLATED SHOWERS WILL OCCUR OVER SOUTHEAST WYOMING AND THE
NEBRASKA PANHANDLE THIS EVENING AS AN UPPER LEVEL LOW MOVES EAST
ACROSS THIS AREA. AVIATION CONCERNS ARE MINIMAL AS HEAVIER SHOWERS
MAY PRODUCE MVFR BUT MAINLY LOOKING AT VFR THROUGH THE TAF PERIOD. 


* * * * * Nebraska * * * * *

METAR KIBM 230055Z AUTO 06006KT 10SM CLR 19/11 A3008 RMK AO2
       T01850111
METAR KIBM 230035Z AUTO 03006KT 10SM CLR 19/11 A3008 RMK AO2
       T01900111
METAR KIBM 230015Z AUTO 02009KT 10SM CLR 21/11 A3008 RMK AO2
       T02060114

KSNY 222338Z 2300/2324 17015G24KT P6SM SCT100
     FM230200 17010KT P6SM SCT120
     FM230800 24009KT P6SM SCT150
     FM231800 31012G19KT P6SM SCT080
METAR KSNY 230053Z AUTO 14015G21KT 10SM CLR 19/13 A3007 RMK AO2 SLP147
       T01890128
METAR KSNY 222353Z AUTO 16016G21KT 10SM SCT065 21/12 A3008 RMK AO2 LTG
       DSNT SE SLP148 T02060117 10278 20194 55005
METAR KSNY 222253Z AUTO 15018G24KT 10SM CLR 24/12 A3007 RMK AO2 PK WND
       15026/2239 LTG DSNT SE AND S SLP138 T02390122

METAR KOGA 230055Z AUTO 12008KT 10SM CLR 19/13 A3005 RMK AO2 LTG DSNT S
       AND SW T01850128
METAR KOGA 230035Z AUTO 12007KT 10SM -RA SCT120 18/13 A3007 RMK AO2 LTG
       DSNT S T01810133
METAR KOGA 230015Z AUTO 11006KT 10SM SCT090 SCT120 18/14 A3007 RMK AO2
       T01820135

METAR KIML 230053Z AUTO 15013KT 10SM FEW055 SCT090 BKN110 21/09 A3009
       RMK AO2 LTG DSNT SE AND S AND NW SLP171 T02060089
METAR KIML 222353Z AUTO 15016KT 10SM BKN075 22/09 A3008 RMK AO2 SLP169
       60007 T02170094 10239 20161 55008
METAR KIML 222253Z AUTO 15015G24KT 10SM SCT075 BKN100 23/10 A3008 RMK
       AO2 SLP164 T02280100

KMCK 222320Z 2300/2324 17019G22KT P6SM VCSH SCT060 BKN100
      TEMPO 2300/2301 -SHRA BKN040
     FM230100 16008KT P6SM -SHRA VCTS BKN040CB
     FM230500 14008KT P6SM VCSH BKN040
     FM230900 VRB04KT P6SM SCT015 BKN035
     FM231600 20010KT P6SM SCT050 BKN200
METAR KMCK 230053Z AUTO 13009KT 10SM FEW050 BKN065 OVC090 22/07 A3010
       RMK AO2 SLP180 T02220072
METAR KMCK 222353Z AUTO 15011KT 10SM FEW090 SCT120 23/07 A3009 RMK AO2
       SLP177 60000 T02330072 10256 20222 56016
METAR KMCK 222253Z AUTO 15014G22KT 10SM SCT055 SCT070 BKN110 24/08 A3010
       RMK AO2 RAB06E42 SLP180 P0000 T02390078

North Platte (KLNX) 09/23/14 00:56 UTC
Radar VAD winds      Height      Dir/Spd(kt)
                  30000 FT MSL...229/045
                  28000 FT MSL...260/028
                  26000 FT MSL...229/035
                  25000 FT MSL...246/029
                  24000 FT MSL...255/028
                  22000 FT MSL...251/034
                  20200 FT MSL...244/031
                  20000 FT MSL...242/030
                  19000 FT MSL...246/027
                  18000 FT MSL...248/024
                  17000 FT MSL...240/019
                  16000 FT MSL...225/029
                  15000 FT MSL...238/024
                  14000 FT MSL...236/037
                  13600 FT MSL...232/021
                  13000 FT MSL...229/028
                  12000 FT MSL...224/022
                  11000 FT MSL...222/018
                  10700 FT MSL...177/015
                  10000 FT MSL...218/018
                   9100 FT MSL...192/023
                   9000 FT MSL...170/020
                   8000 FT MSL...204/033
                   7400 FT MSL...193/027
                   7000 FT MSL...196/030
                   6000 FT MSL...196/035
                   5800 FT MSL...197/035
                   5000 FT MSL...188/037
                   4100 FT MSL...180/032
                   4000 FT MSL...167/036
                   4000 FT MSL...166/034
                   3400 FT MSL...153/023

North Platte Aviation Discussion
Issued at 2344 UTC Monday, September 22, 2014

.AVIATION...(FOR THE 00Z TAFS THROUGH 00Z TUESDAY EVENING)
ISSUED AT 643 PM CDT MON SEP 22 2014
SHOWERS...WITH EMBEDDED THUNDERSTORMS...WILL BE POSSIBLE ACROSS
WESTERN AND NORTH CENTRAL NEBRASKA INTO THE OVERNIGHT HOURS. CIGS
WILL GENERALLY BE VFR INTO THE OVERNIGHT. SOME MVFR CIGS ARE
POSSIBLE OVERNIGHT TONIGHT INTO EARLY TUESDAY MORNING AT THE KVTN
TERMINAL. SOME LIMITED CLEARING IS POSSIBLE TUESDAY
AFTERNOON...PARTICULARLY AT THE KLBF TERMINAL. AT THE KVTN
TERMINAL...EXPECT CLOUDY SKIES TUESDAY WITH CIGS RANGING FROM 5000
TO 10000 FT AGL. 


* * * * * Kansas * * * * *

KGLD 222320Z 2300/2324 18020G30KT P6SM VCSH SCT040 BKN100
      TEMPO 2300/2302 -SHRA BKN040
     FM230500 17009KT P6SM SCT100
     FM231000 VRB05KT 6SM BR SCT005 BKN010
     FM231400 VRB06KT P6SM FEW250
     FM231800 30009KT P6SM FEW100
METAR KGLD 230053Z AUTO 16017KT 10SM FEW044 BKN120 20/12 A3008 RMK AO2
       RAB31E44 SLP163 P0000 T02000122
METAR KGLD 222353Z AUTO 16019G28KT 10SM CLR 21/12 A3009 RMK AO2 PK WND
       17031/2307 RAE2258 SLP163 P0000 60000 T02110117 10250 20211
       56018
METAR KGLD 222253Z AUTO 18022G32KT 10SM -RA FEW040 BKN110 22/12 A3008
       RMK AO2 PK WND 18032/2247 RAB20 SLP160 P0000 T02170122

KGCK 222322Z 2300/2324 17015G22KT P6SM BKN090
     FM230100 16013KT P6SM SCT025 BKN050
      TEMPO 2303/2306 -TSRA SCT020 BKN030CB
     FM231500 18019G25KT P6SM BKN040
METAR KGCK 230054Z 15013KT 10SM SCT110 23/09 A3013 RMK AO2 SLP183
       T02280089
METAR KGCK 222354Z 16013KT 10SM SCT110 24/08 A3014 RMK AO2 SLP186
       T02390083 10261 20233 56013
METAR KGCK 222254Z 16012G22KT 10SM BKN110 24/08 A3015 RMK AO2 SLP189
       T02390078

METAR KLBL 230055Z AUTO 15011KT 10SM BKN120 24/09 A3016 RMK AO1
METAR KLBL 230035Z AUTO 16012G17KT 10SM CLR 24/09 A3016 RMK AO1
METAR KLBL 230015Z AUTO 17013KT 10SM SCT120 24/09 A3017 RMK AO1

METAR KEHA 230048Z AUTO 17013KT 23/13 RMK AO1 PK WND 20 000
       T02280128
METAR KEHA 230028Z AUTO 18012KT 23/12 RMK AO1 PK WND 20 000
       T02330123
METAR KEHA 230008Z AUTO 17011KT 24/13 RMK AO1 PK WND 14 000
       T02390128

Goodland (KGLD) 09/23/14 00:56 UTC
Radar VAD winds      Height      Dir/Spd(kt)
                  40000 FT MSL...289/053
                  36700 FT MSL...279/038
                  35000 FT MSL...293/033
                  30400 FT MSL...261/038
                  30000 FT MSL...250/036
                  28000 FT MSL...241/032
                  26000 FT MSL...244/034
                  25200 FT MSL...246/035
                  25000 FT MSL...246/035
                  24000 FT MSL...249/033
                  22000 FT MSL...254/031
                  21000 FT MSL...267/027
                  20000 FT MSL...258/025
                  19000 FT MSL...258/024
                  18000 FT MSL...254/022
                  17600 FT MSL...255/022
                  17000 FT MSL...251/021
                  16000 FT MSL...266/018
                  15000 FT MSL...245/019
                  14900 FT MSL...253/019
                  14000 FT MSL...241/019
                  13000 FT MSL...242/020
                  12700 FT MSL...242/020
                  12000 FT MSL...236/018
                  11000 FT MSL...235/018
                  10800 FT MSL...232/019
                  10000 FT MSL...223/020
                   9300 FT MSL...220/026
                   9000 FT MSL...220/027
                   8000 FT MSL...209/038
                   8000 FT MSL...209/038
                   7000 FT MSL...194/040
                   7000 FT MSL...193/040
                   6200 FT MSL...185/039
                   6000 FT MSL...184/039
                   5400 FT MSL...174/038
                   5000 FT MSL...170/037
                   4700 FT MSL...168/034
                   4300 FT MSL...156/032
                   4000 FT MSL...154/027
                   4000 FT MSL...153/025

Dodge City (KDDC) 09/23/14 00:58 UTC
Radar VAD winds      Height      Dir/Spd(kt)
                  24000 FT MSL...269/031
                  22000 FT MSL...264/026
                  20000 FT MSL...262/023
                  20000 FT MSL...263/023
                  19000 FT MSL...261/022
                  18000 FT MSL...254/019
                  17000 FT MSL...248/016
                  16500 FT MSL...243/016
                  16000 FT MSL...242/015
                  15000 FT MSL...240/016
                  14000 FT MSL...243/018
                  13800 FT MSL...243/017
                  13000 FT MSL...236/020
                  12000 FT MSL...225/022
                  11600 FT MSL...222/023
                  11000 FT MSL...212/023
                  10000 FT MSL...217/025
                   9700 FT MSL...213/024
                   9000 FT MSL...217/027
                   8200 FT MSL...211/025
                   8000 FT MSL...210/025
                   7000 FT MSL...202/023
                   7000 FT MSL...202/023
                   6000 FT MSL...191/024
                   5900 FT MSL...193/024
                   5100 FT MSL...184/026
                   5000 FT MSL...179/026
                   4300 FT MSL...171/025
                   4000 FT MSL...165/024
                   3700 FT MSL...161/022
                   3200 FT MSL...160/023
                   3000 FT MSL...156/019
                   3000 FT MSL...156/019

Goodland Aviation Discussion
Issued at 2316 UTC Monday, September 22, 2014

.AVIATION...(FOR THE 00Z TAFS THROUGH 00Z TUESDAY EVENING)
ISSUED AT 516 PM MDT MON SEP 22 2014
LIGHT RAIN SHOWERS CONTINUE TO MOVE WITHIN VICINITY OF BOTH
TERMINALS AND THIS SHOULD CONTINUE THROUGH THE EVENING.
THUNDERSTORMS OVER NE COLORADO SHOULD MOVE ALONG KS/NE BORDER AND
POSSIBLY IMPACT KMCK DURING THE EVENING HOURS. SHOWERS SHOULD END
AT KGLD FIRST...WITH LINGERING SHOWERS POSSIBLE AHEAD OF MAIN
UPPER LEVEL SYSTEM AT KMCK. SHORT TERM AND ENSEMBLE GUIDANCE
SHOWING STRATUS AND LIGHT FOG DEVELOPMENT ALONG KS/CO BORDER WHICH
COULD IMPACT KGLD...POSSIBLY KMCK AROUND 12Z. I KEPT IFR CIG GROUP
IN PLACE AROUND 12Z AT KGLD...BUT I AM NOT CONFIDENT ENOUGH TO
LOWER CONDITIONS AT KMCK WITH SLIGHTLY BETTER MIXING. VFR
CONDITIONS ARE EXPECTED AFTER MID MORNING TUESDAY REGARDLESS OF
EVOLUTION OF STRATUS AS MIXING INCREASES AT BOTH TERMINALS.

Dodge City Aviation Discussion
Issued at 2306 UTC Monday, September 22, 2014

.AVIATION...(FOR THE 00Z TAFS THROUGH 00Z TUESDAY EVENING)
ISSUED AT 602 PM CDT MON SEP 22 2014
SCATTERED THUNDERSTORMS WILL BE POSSIBLE OVERNIGHT AS AN UPPER
LEVEL DISTURBANCE CROSSES WESTERN KANSAS. AT THIS TIME BASED ON
THE RAP, HRRR, AND NAM THE LOCATIONS MORE FAVORABLE FOR CONVECTION
DURING THE OVERNIGHT HOURS WILL BE AROUND THE GARDEN CITY AREA
BETWEEN 03Z AND 06Z, AND THE HAYS AREA BETWEEN 05Z AND 09Z.
ANY THUNDERSTORM ACTIVITY IN THE DODGE CITY AREA WILL BE MORE
WIDELY SCATTERED/ISOLATED BETWEEN 08Z AND 12Z. AT THIS TIME GIVEN
THE LOWER PROBABILITY HAVE DECIDED TO NOT MENTION THUNDERSTORMS IN
THE 00Z TAFS. OUTSIDE THE CONVECTION OVERNIGHT VFR CONDITIONS ARE
EXPECTED. MODEL SOUNDINGS DO INDICATE THAT THE CLOUD BASES MAY
BRIEFLY FALL INTO THE 2000 TO 3000FT AGL RANGE IN AND NEAR THE
THUNDERSTORMS AS THEY CROSS WESTERN KANSAS. PREVAILING SURFACE
WINDS TONIGHT WILL BE SOUTHEAST AT 10 TO 15 KNOTS.


* * * * * Texas/Oklahoma * * * * *

KGUY 222343Z 2300/2324 17013G20KT P6SM SCT040 BKN150
     FM230900 19013KT P6SM SCT025
     FM231500 19018KT P6SM BKN050=
METAR KGUY 230053Z AUTO 18013KT 10SM FEW055 FEW110 24/13 A3014 RMK AO2
       RAB43E53 SLP171 P0000 T02440133
METAR KGUY 222353Z AUTO 18014G18KT 10SM CLR 26/13 A3015 RMK AO2 SLP173
       T02560128 10272 20228 56009
METAR KGUY 222253Z AUTO 18012G22KT 10SM FEW060 SCT120 26/13 A3016 RMK
       AO2 SLP174 T02610128

KDHT 222343Z 2300/2324 19011KT P6SM VCSH SCT030
     FM230900 20010KT 6SM BR OVC015
     FM231600 20018KT P6SM BKN050
METAR KDHT 230053Z AUTO 20013KT 10SM FEW049 BKN065 23/15 A3021 RMK AO2
       RAB12E26 SLP184 P0000 T02280150
METAR KDHT 222353Z AUTO 19014KT 10SM BKN044 BKN120 24/14 A3021 RMK AO2
       RAB11E21 SLP180 P0000 60000 T02390139 10267 20228 56009
METAR KDHT 222253Z AUTO 19015KT 10SM SCT044 OVC055 24/14 A3021 RMK AO2
       SLP182 T02440139

Amarillo (KAMA) 09/23/14 00:57 UTC
Radar VAD winds      Height      Dir/Spd(kt)
                  30000 FT MSL...325/024
                  28000 FT MSL...278/029
                  26000 FT MSL...292/041
                  25000 FT MSL...289/024
                  22000 FT MSL...307/024
                  20800 FT MSL...335/005
                  20000 FT MSL...303/029
                  19000 FT MSL...296/016
                  18000 FT MSL...303/023
                  17000 FT MSL...270/013
                  16000 FT MSL...261/006
                  13000 FT MSL...267/020
                  11000 FT MSL...250/023
                   9000 FT MSL...200/026
                   6000 FT MSL...175/026
                   4700 FT MSL...193/014
                   4600 FT MSL...173/022
                   4000 FT MSL...166/021
                   4000 FT MSL...168/020

Amarillo Aviation Discussion
Issued at 2357 UTC Monday, September 22, 2014

.AVIATION...
FOR THE 00Z TAFS...VFR CONDITIONS ARE EXPECTED TO START THE
PERIOD...WITH POSSIBLE MVFR CEILINGS DEVELOPING AT KAMA AND KDHT
AFTER 06Z TONIGHT. A FEW LIGHT RAIN SHOWERS NEAR KDHT TONIGHT COULD
BRING BRIEF GUSTY WINDS THIS EVENING. SOUTH WINDS THROUGHOUT THE
PERIOD SHOULD BECOME GUSTY DURING THE DAY TUESDAY.
NF


* * * * * New Mexico * * * * *

KFMN 222331Z 2300/2324 24008KT P6SM SCT050 BKN110
     FM230300 VRB05KT P6SM SCT110
     FM230800 09006KT P6SM FEW120
     FM232100 27008KT P6SM SKC
METAR KFMN 230053Z 26005KT 10SM CLR 24/09 A3015 RMK AO2 SLP156
       T02440094
METAR KFMN 222353Z 25007KT 10SM FEW060 26/09 A3015 RMK AO2 SLP153
       T02610094 10272 20228 56014
METAR KFMN 222253Z 24009KT 10SM CLR 26/11 A3017 RMK AO2 SLP158
       T02610111

METAR KSKX 230055Z AUTO 00000KT 10SM SCT075 BKN110 18/11 A3032 RMK
       AO1
METAR KSKX 230035Z AUTO 16005KT 10SM FEW110 18/12 A3032 RMK AO1
METAR KSKX 230015Z AUTO 16006KT 10SM CLR 18/12 A3031 RMK AO1

KLVS 222331Z 2300/2324 17015KT P6SM VCSH SCT005 BKN010 OVC040
      TEMPO 2300/2303 3SM -RA BR BKN005
     FM230400 18010KT P6SM SCT004 OVC015
     FM230700 18010KT P6SM VCFG SCT001 OVC003
     FM231000 19008KT P6SM SCT003 BKN025
     FM231600 20009KT P6SM SCT030
     FM232100 20012G18KT P6SM SCT060
METAR KLVS 230053Z AUTO 17012G18KT 10SM OVC005 15/14 A3032 RMK AO2 CIG
       003V009 SLP183 T01500144
METAR KLVS 222353Z AUTO 18014KT 10SM BKN007 OVC013 16/14 A3031 RMK AO2
       CIG 005V011 SLP177 60001 T01560144 10178 20150 58012
METAR KLVS 222253Z AUTO 17015KT 10SM BKN006 OVC010 16/14 A3033 RMK AO2
       RAE01 SLP184 P0000 T01560144

METAR KRTN 230053Z AUTO 18014G23KT 10SM OVC013 16/14 A3026 RMK AO2 PK
       WND 18028/0030 RAE37 TSB2357E17 SLP176 P0003 T01610144
SPECI KRTN 230048Z AUTO 19013G20KT 10SM OVC013 16/14 A3026 RMK AO2 PK
       WND 18028/0030 RAE37 TSB2357E17 P0003
SPECI KRTN 230019Z AUTO 15017G22KT 8SM -RA OVC015 16/14 A3025 RMK AO2 PK
       WND 18026/2355 TSB2357E17 P0003 T01610144

METAR KCAO 230055Z AUTO 20011KT 10SM CLR 17/15 A3022 RMK AO2 RAE03
       SLP186 P0001 T01720150
METAR KCAO 222355Z AUTO 21014G23KT 10SM -RA SCT041 SCT070 BKN090 18/16
       A3022 RMK AO2 PK WND 22026/2323 RAB15 SLP188 P0005 60005
       T01780156 10222 20172 58008
SPECI KCAO 222343Z AUTO 21017G24KT 10SM -RA FEW015 BKN049 OVC090 17/16
       A3023 RMK AO2 PK WND 22026/2323 RAB15 P0005 T01720156

Albuquerque (KABX) 09/23/14 00:58 UTC
Radar VAD winds      Height      Dir/Spd(kt)
                  35000 FT MSL...241/028
                  32700 FT MSL...253/025
                  30000 FT MSL...258/024
                  28000 FT MSL...267/021
                  27500 FT MSL...266/019
                  26000 FT MSL...258/029
                  25000 FT MSL...283/017
                  24000 FT MSL...289/011
                  23300 FT MSL...282/015
                  22000 FT MSL...273/023
                  20000 FT MSL...275/023
                  19900 FT MSL...281/019
                  19000 FT MSL...275/018
                  18000 FT MSL...276/018
                  17100 FT MSL...278/015
                  17000 FT MSL...274/016
                  16000 FT MSL...287/013
                  15000 FT MSL...275/012
                  15000 FT MSL...286/011
                  14000 FT MSL...282/011
                  12000 FT MSL...060/012
                  11500 FT MSL...063/011
                  11000 FT MSL...067/014
                  10300 FT MSL...076/016
                  10000 FT MSL...075/020
                   9200 FT MSL...083/018
                   9000 FT MSL...081/019
                   8500 FT MSL...092/017
                   8000 FT MSL...088/015
                   7700 FT MSL...091/016
                   7000 FT MSL...082/018
                   7000 FT MSL...080/018

Albuquerque Aviation Discussion
Issued at 0002 UTC Tuesday, September 23, 2014

.AVIATION...
00Z TAF CYCLE
SCATTERED SHOWERS AND THUNDERSTORMS MOVING GENERALLY FROM WEST TO
EAST WILL CONTINUE INTO THE NIGHT HOURS...ENDING BETWEEN 02Z AND
06Z ACROSS THE WEST AND LINGERING TO 10Z ACROSS THE EAST. THE
STRONGEST THUNDERSTORMS WILL PRODUCE MVFR CIGS AND OUTFLOW TO
35-40KT. EXPECTING MVFR AND LOCAL IFR CIGS/VSBYS ALONG AND EAST OF
THE CENTRAL MOUNTAIN CHAIN...THOUGH SOME UNCERTAINTY ON EXTENT
ACROSS EXTREME EAST AND SOUTHEAST PLAINS. LOW CLOUDS SHOULD SCOUR
POUT MID TO LATE MORNING AS DRIER AIR EXPANDS WEST TO WEST...WITH
FEWER STORMS EXPECTED TUESDAY. THOSE THAT DO DEVELOP WILL FAVOR
THE SOUTHWEST AND SOUTH CENTRAL MOUNTAINS.

* * * * * Winds and Temperatures Aloft Forecasts * * * * *

DATA BASED ON 221200Z    
VALID 221800Z   FOR USE 1700-2100Z. TEMPS NEG ABV 24000
FT  3000    6000   9000    12000   18000   24000  30000  34000  39000
SLC      9900    2315+09 2618+02 2622-10 2830-20 284437 284943 275050
BCE                      2510+04 2724-05 2731-19 274437 265243 265750
LND              2512+10 2620+03 2614-11 2515-22 221239 231647 263447
RKS              2510    2520+02 2623-11 2522-22 252239 264342 274947
GJT              2310+11 2523+04 2533-09 2641-19 264036 264742 275050
FMN              2211+12 2517+06 2525-07 2834-18 264234 266142 276050
ABQ              1606+13 9900+07 2515-05 2716-18 263932 275241 284851
MBW              2518    2424+05 2331-10 2238-21 224337 235145 254950
DEN              9900+12 2712+05 2529-09 2630-19 253535 264445 274652
PUB              2119+11 2525+06 2431-08 2527-18 253634 254444 275053
ALS                      2317+06 2530-07 2631-19 273834 265443 285751
TCC      1621    1818+11 1918+05 2516-06 2918-18 284033 285242 295853
BFF      1919    2710+12 2707+04 2123-09 2331-20 233436 234046 264353
GLD      1930    2136+10 2126+05 2311-08 2615-19 273435 265146 286055
GCK      1618+15 2121+10 2216+05 2812-09 2819-19 282635 293646 305553
GAG      1209+15 1805+10 9900+04 2910-08 3118-19 303134 304644 306854
AMA      1519    1713+10 1811+05 2707-07 2713-18 303634 295442 296354
---------------------------------------------------------------------

DATA BASED ON 221200Z    
VALID 230000Z   FOR USE 2100-0600Z. TEMPS NEG ABV 24000
FT  3000    6000   9000    12000   18000   24000  30000  34000  39000
SLC      9900    2512+11 2622+03 2833-07 2837-20 283537 283844 284551
BCE                      2706+07 2719-06 2625-18 264136 265043 266450
LND              2910+11 3015+04 2918-10 2822-22 282139 292746 294148
RKS              2819    2819+03 2725-10 2829-20 283938 284744 284550
GJT              2508+13 2516+06 2834-07 2851-19 285436 275043 275850
FMN              9900+15 2612+07 2722-05 2830-18 273935 275441 275550
ABQ              1510+13 3005+06 2922-05 2821-17 264332 265141 284351
MBW              2621    2627+03 2824-10 2827-22 263038 274843 274648
DEN              2008+13 2718+06 2733-09 2737-19 263236 263643 275051
PUB              1814+13 2515+06 2837-08 2842-19 255034 264544 274952
ALS                      2518+07 2832-07 2841-18 254534 275042 285451
TCC      1718    2022+10 2118+05 2718-06 2923-17 263932 264742 285553
BFF      1817    2410+11 2811+04 2619-09 2431-20 234236 245145 264850
GLD      1941    2338+11 2624+05 2821-09 2728-19 253934 264044 274154
GCK      1922+14 2125+09 2327+04 2733-08 2636-18 263433 263745 294954
GAG      1911+16 2111+10 2210+04 2718-07 2925-18 302934 304344 306154
AMA      1713    2114+10 2012+04 2713-07 3121-18 303333 285943 296453
---------------------------------------------------------------------

DATA BASED ON 221200Z    
VALID 231200Z   FOR USE 0600-1700Z. TEMPS NEG ABV 24000
FT  3000    6000   9000    12000   18000   24000  30000  34000  39000
SLC      9900    2411+12 2617+04 3026-07 3030-21 303238 293545 274751
BCE                      9900+06 3020-06 2826-20 283336 274442 276151
LND              3009+09 3011+03 3122-09 3124-21 302338 292945 283751
RKS              2819    2825+03 3029-07 3032-20 282838 283644 284150
GJT              2610+13 2615+05 2923-07 2931-20 293037 284143 285252
FMN              2809+14 2510+06 2919-06 2826-19 283036 285940 286252
ABQ              2406+11 2809+06 2913-05 3013-18 284333 285439 285352
MBW              2832    2829+03 3023-10 3032-21 303837 304244 294851
DEN              3022+12 3021+05 2829-09 2940-20 294037 294743 295051
PUB              3017+13 2914+06 2718-08 2836-20 294537 295043 296151
ALS                      2916+06 2922-06 2830-19 283937 285442 286951
TCC      2227    2518+10 2311+06 2610-06 3115-19 283635 295840 295852
BFF      3020    2918+10 2918+03 2822-11 2825-22 293738 294244 295048
GLD      3210    9900+12 2718+05 2623-09 2839-21 283437 294543 294951
GCK      2344+16 2525+12 2617+05 2619-08 3033-21 294137 294744 295751
GAG      2322+16 2518+10 2513+04 2619-08 3025-20 294336 295543 306751
AMA      2131    2427+10 2513+05 2610-06 3217-19 293436 295941 306452
---------------------------------------------------------------------

This product is updated automatically at approximately 10, 30 and 50
minutes after each hour, 24 hours per day, 7 days per week.  It may
become unavailable at times due to system outages without prior notice.
Users are advised to check the time at the top of the product to ensure
that it is current.  Furthermore, content and format of the product are
subject to change without prior notice.

Comments and suggestions are welcome and should be directed to one of
the addresses or phone numbers shown at the bottom of this page.  In
order to expedite a response to comments or suggestions, be sure to
mention your interest in the hot-air balloon forecast.

USA.gov is the U.S. government's official web portal to all federal, state and local government web resources and services.